Map

Track Data

SID SEASON NUMBER BASIN SUBBASIN NAME ISO_TIME NATURE LAT LON WMO_WIND WMO_PRES WMO_AGENCY TRACK_TYPE DIST2LAND LANDFALL IFLAG USA_AGENCY USA_ATCF_ID USA_LAT USA_LON USA_RECORD USA_STATUS USA_WIND USA_PRES USA_SSHS USA_R34_NE USA_R34_SE USA_R34_SW USA_R34_NW USA_R50_NE USA_R50_SE USA_R50_SW USA_R50_NW USA_R64_NE USA_R64_SE USA_R64_SW USA_R64_NW USA_POCI USA_ROCI USA_RMW USA_EYE TOKYO_LAT TOKYO_LON TOKYO_GRADE TOKYO_WIND TOKYO_PRES TOKYO_R50_DIR TOKYO_R50_LONG TOKYO_R50_SHORT TOKYO_R30_DIR TOKYO_R30_LONG TOKYO_R30_SHORT TOKYO_LAND CMA_LAT CMA_LON CMA_CAT CMA_WIND CMA_PRES HKO_LAT HKO_LON HKO_CAT HKO_WIND HKO_PRES NEWDELHI_LAT NEWDELHI_LON NEWDELHI_GRADE NEWDELHI_WIND NEWDELHI_PRES NEWDELHI_CI NEWDELHI_DP NEWDELHI_POCI REUNION_LAT REUNION_LON REUNION_TYPE REUNION_WIND REUNION_PRES REUNION_TNUM REUNION_CI REUNION_RMW REUNION_R34_NE REUNION_R34_SE REUNION_R34_SW REUNION_R34_NW REUNION_R50_NE REUNION_R50_SE REUNION_R50_SW REUNION_R50_NW REUNION_R64_NE REUNION_R64_SE REUNION_R64_SW REUNION_R64_NW BOM_LAT BOM_LON BOM_TYPE BOM_WIND BOM_PRES BOM_TNUM BOM_CI BOM_RMW BOM_R34_NE BOM_R34_SE BOM_R34_SW BOM_R34_NW BOM_R50_NE BOM_R50_SE BOM_R50_SW BOM_R50_NW BOM_R64_NE BOM_R64_SE BOM_R64_SW BOM_R64_NW BOM_ROCI BOM_POCI BOM_EYE BOM_POS_METHOD BOM_PRES_METHOD NADI_LAT NADI_LON NADI_CAT NADI_WIND NADI_PRES WELLINGTON_LAT WELLINGTON_LON WELLINGTON_WIND WELLINGTON_PRES DS824_LAT DS824_LON DS824_STAGE DS824_WIND DS824_PRES TD9636_LAT TD9636_LON TD9636_STAGE TD9636_WIND TD9636_PRES TD9635_LAT TD9635_LON TD9635_WIND TD9635_PRES TD9635_ROCI NEUMANN_LAT NEUMANN_LON NEUMANN_CLASS NEUMANN_WIND NEUMANN_PRES MLC_LAT MLC_LON MLC_CLASS MLC_WIND MLC_PRES USA_GUST BOM_GUST BOM_GUST_PER REUNION_GUST REUNION_GUST_PER USA_SEAHGT USA_SEARAD_NE USA_SEARAD_SE USA_SEARAD_SW USA_SEARAD_NW STORM_SPEED STORM_DIR
1904146N14083 1904 12 NI BB NOT_NAMED 1904-05-25 00:00:00 TS 13.8000 83.2000 main 313 291 _________O____ -1 13.8000 83.2000 TC 34 5 308
1904146N14083 1904 12 NI BB NOT_NAMED 1904-05-25 03:00:00 TS 13.9550 82.9967 main 292 255 _________PO___ -1 14.0326 82.8951 TC 36 13.8000 83.2000 2 6 311
1904146N14083 1904 12 NI BB NOT_NAMED 1904-05-25 06:00:00 TS 14.2095 82.7177 main 255 217 _________OP___ -1 14.3000 82.6000 TC 39 14.0738 82.8942 2 8 316
1904146N14083 1904 12 NI BB NOT_NAMED 1904-05-25 09:00:00 TS 14.5120 82.4445 main 209 170 _________PP___ -1 14.6275 82.3275 TC 42 14.3579 82.6004 2 8 322
1904146N14083 1904 12 NI BB NOT_NAMED 1904-05-25 12:00:00 TS 14.8315 82.2157 main 170 123 _________OP___ -1 15.0000 82.1000 TC 45 14.6631 82.3314 2 8 328
1904146N14083 1904 12 NI BB NOT_NAMED 1904-05-25 15:00:00 TS 15.1925 82.0100 main 123 81 _________PO___ -1 15.3850 81.9200 TC 41 15.0000 82.1000 3 8 335
1904146N14083 1904 12 NI BB NOT_NAMED 1904-05-25 18:00:00 TS 15.5884 81.8587 main 81 35 _________OP___ -1 15.8000 81.8000 TC 37 15.3767 81.9173 3 9 343
1904146N14083 1904 12 NI BB NOT_NAMED 1904-05-25 21:00:00 TS 16.0124 81.7539 main 35 0 _________PP___ -1 16.2350 81.7200 TC 33 15.7898 81.7878 3 9 350
1904146N14083 1904 12 NI BB NOT_NAMED 1904-05-26 00:00:00 TS 16.4665 81.7072 main 0 0 _________OP___ -1 16.7000 81.7000 TC 30 16.2330 81.7144 3 9 358
1904146N14083 1904 12 NI BB NOT_NAMED 1904-05-26 03:00:00 TS 16.9462 81.7100 main 0 0 _________PO___ -1 17.1925 81.7200 TC 30 16.7000 81.7000 1 10 3
1904146N14083 1904 12 NI BB NOT_NAMED 1904-05-26 06:00:00 TS 17.4493 81.7590 main 0 0 _________OP___ -1 17.7000 81.8000 TC 30 17.1986 81.7179 1 10 8
1904146N14083 1904 12 NI BB NOT_NAMED 1904-05-26 09:00:00 TS 17.9649 81.8612 main 0 0 _________PP___ -1 18.2150 81.9275 TC 30 17.7148 81.7948 1 10 13
1904146N14083 1904 12 NI BB NOT_NAMED 1904-05-26 12:00:00 TS 18.4618 82.0122 main 0 0 _________OP___ -1 18.7000 82.1000 TC 30 18.2236 81.9244 1 10 18
1904146N14083 1904 12 NI BB NOT_NAMED 1904-05-26 15:00:00 TS 18.9112 82.1888 main 0 0 _________PO___ -1 19.1224 82.2777 TC 30 18.7000 82.1000 1 9 23
1904146N14083 1904 12 NI BB NOT_NAMED 1904-05-26 18:00:00 TS 19.2868 82.3739 main 0 0 _________OP___ -1 19.5000 82.5000 TC 30 19.0737 82.2478 1 8 28
1904146N14083 1904 12 NI BB NOT_NAMED 1904-05-26 21:00:00 TS 19.6155 82.5933 main 0 0 _________PP___ -1 19.8122 82.7408 TC 30 19.4188 82.4457 1 9 36
1904146N14083 1904 12 NI BB NOT_NAMED 1904-05-27 00:00:00 TS 19.9898 82.9103 main 0 0 _________OP___ -1 20.2000 83.1000 TC 30 19.7795 82.7206 1 12 39
1904146N14083 1904 12 NI BB NOT_NAMED 1904-05-27 03:00:00 TS 20.5101 83.3735 main 0 0 _________PO___ -1 20.8201 83.6471 TC 30 20.2000 83.1000 1 15 41
1904146N14083 1904 12 NI BB NOT_NAMED 1904-05-27 06:00:00 TS 21.1259 83.9480 main 0 0 _________OP___ -1 21.5000 84.3000 TC 30 20.7518 83.5959 1 16 43
1904146N14083 1904 12 NI BB NOT_NAMED 1904-05-27 09:00:00 TS 21.7137 84.5636 main 0 0 _________PP___ -1 22.0646 84.9283 TC 30 21.3628 84.1989 1 17 46
1904146N14083 1904 12 NI BB NOT_NAMED 1904-05-27 12:00:00 TS 22.2961 85.2388 main 0 0 _________OP___ -1 22.6000 85.6000 TC 30 21.9922 84.8777 1 18 48
1904146N14083 1904 12 NI BB NOT_NAMED 1904-05-27 15:00:00 TS 22.8824 85.9676 main 0 0 _________PO___ -1 23.1648 86.3352 TC 30 22.6000 85.6000 1 17 50
1904146N14083 1904 12 NI BB NOT_NAMED 1904-05-27 18:00:00 TS 23.3890 86.6645 main 0 0 _________OP___ -1 23.7000 87.1000 TC 30 23.1557 86.3379 1 16 53
1904146N14083 1904 12 NI BB NOT_NAMED 1904-05-27 21:00:00 TS 23.8671 87.3925 main 0 0 _________PP___ -1 24.1706 87.8542 TC 30 23.6647 87.0847 1 16 55
1904146N14083 1904 12 NI BB NOT_NAMED 1904-05-28 00:00:00 TS 24.2943 88.0928 main 0 0 _________OP___ -1 24.6000 88.6000 TC 30 24.1414 87.8392 1 13 56
1904146N14083 1904 12 NI BB NOT_NAMED 1904-05-28 03:00:00 NR 24.6000 88.6000 main 0 __________O___ -1 TC 24.6000 88.6000 1 11 56

About IBTrACS Database

This database is a web-friendly format of International Best Track Archive for Climate Stewardship (IBTrACS), a global best track data archive curated by NOAA dating back to 1842.

Updated: 2021-10-21